createdAt,value
2022-10-03T00:00:14.466Z,15.00
2022-10-03T00:03:14.171Z,14.90
2022-10-03T00:06:09.320Z,14.90
2022-10-03T00:09:16.717Z,14.60
2022-10-03T00:11:58.547Z,14.40
2022-10-03T00:14:34.859Z,14.50
2022-10-03T00:17:11.887Z,14.30
2022-10-03T00:19:53.646Z,14.30
2022-10-03T00:22:35.651Z,14.10
2022-10-03T00:25:18.971Z,14.20
2022-10-03T00:27:52.128Z,14.30
2022-10-03T00:30:23.308Z,14.10
2022-10-03T00:33:19.744Z,14.20
2022-10-03T00:36:00.790Z,14.00
2022-10-03T00:39:04.188Z,14.20
2022-10-03T00:42:18.501Z,14.10
2022-10-03T00:45:36.034Z,14.30
2022-10-03T00:48:49.959Z,14.20
2022-10-03T00:51:43.326Z,14.30
2022-10-03T00:54:34.183Z,14.10
2022-10-03T00:57:18.469Z,14.10
2022-10-03T01:00:13.311Z,13.90
2022-10-03T01:03:16.925Z,13.90
2022-10-03T01:06:08.284Z,14.00
2022-10-03T01:09:03.949Z,14.10
2022-10-03T01:11:45.499Z,14.10
2022-10-03T01:14:27.840Z,14.00
2022-10-03T01:17:06.028Z,14.00
2022-10-03T01:19:56.881Z,14.10
2022-10-03T01:22:55.131Z,14.10
2022-10-03T01:25:38.515Z,14.10
2022-10-03T01:28:41.126Z,14.20
2022-10-03T01:31:12.235Z,14.10
2022-10-03T01:33:45.949Z,14.10
2022-10-03T01:36:20.269Z,14.20
2022-10-03T01:41:49.433Z,14.50
2022-10-03T01:44:28.188Z,14.60
2022-10-03T01:47:13.829Z,14.50
2022-10-03T01:49:48.088Z,14.50
2022-10-03T01:52:24.716Z,14.10
2022-10-03T01:55:03.887Z,14.00
2022-10-03T01:57:42.786Z,13.70
2022-10-03T02:00:15.568Z,13.80
2022-10-03T02:02:48.419Z,13.80
2022-10-03T02:05:31.382Z,13.80
2022-10-03T02:08:09.734Z,13.80
2022-10-03T02:10:46.735Z,13.80
2022-10-03T02:13:22.046Z,13.90
2022-10-03T02:16:07.976Z,14.10
2022-10-03T02:18:47.864Z,14.10
2022-10-03T02:21:29.970Z,14.10
2022-10-03T02:24:24.363Z,14.20
2022-10-03T02:27:38.845Z,14.30
2022-10-03T02:30:17.723Z,14.50
2022-10-03T02:33:25.819Z,14.30
2022-10-03T02:36:24.420Z,14.10
2022-10-03T02:39:13.160Z,14.00
2022-10-03T02:42:14.568Z,14.00
2022-10-03T02:45:09.924Z,14.10
2022-10-03T02:48:27.476Z,13.80
2022-10-03T02:51:20.549Z,14.00
2022-10-03T02:54:37.450Z,14.00
2022-10-03T02:57:47.401Z,14.00
2022-10-03T03:00:21.207Z,13.80
2022-10-03T03:03:31.221Z,13.90
2022-10-03T03:06:38.399Z,13.70
2022-10-03T03:09:37.363Z,13.70
2022-10-03T03:12:31.286Z,13.70
2022-10-03T03:15:53.222Z,13.70
2022-10-03T03:18:34.799Z,13.80
2022-10-03T03:21:30.382Z,14.00
2022-10-03T03:24:24.714Z,14.00
2022-10-03T03:27:36.444Z,13.90
2022-10-03T03:30:13.671Z,13.90
2022-10-03T03:32:57.048Z,14.00
2022-10-03T03:35:36.090Z,14.00
2022-10-03T03:38:16.821Z,14.00
2022-10-03T03:41:04.802Z,13.90
2022-10-03T03:44:30.168Z,14.00
2022-10-03T03:47:31.291Z,14.00
2022-10-03T03:50:26.541Z,14.10
2022-10-03T03:53:19.773Z,13.80
2022-10-03T03:56:12.786Z,13.60
2022-10-03T03:58:51.214Z,13.40
2022-10-03T04:01:36.134Z,13.30
2022-10-03T04:04:17.642Z,13.30
2022-10-03T04:07:03.988Z,13.30
2022-10-03T04:13:19.000Z,13.50
2022-10-03T04:16:01.619Z,13.50
2022-10-03T04:19:00.462Z,13.50
2022-10-03T04:21:49.195Z,13.40
2022-10-03T04:24:46.350Z,13.50
2022-10-03T04:27:34.771Z,13.50
2022-10-03T04:30:14.973Z,13.40
2022-10-03T04:33:01.793Z,13.40
2022-10-03T04:35:47.831Z,13.40
2022-10-03T04:38:24.235Z,13.50
2022-10-03T04:41:20.388Z,13.70
2022-10-03T04:43:55.686Z,13.80
2022-10-03T04:46:35.140Z,13.80
2022-10-03T04:49:17.272Z,13.80
2022-10-03T04:51:57.190Z,13.70
2022-10-03T04:54:33.764Z,13.40
2022-10-03T04:57:08.741Z,13.50
2022-10-03T04:59:54.876Z,13.40
2022-10-03T05:02:51.970Z,13.30
2022-10-03T05:05:36.998Z,13.50
2022-10-03T05:08:16.061Z,13.20
2022-10-03T05:10:59.401Z,13.20
2022-10-03T05:13:47.303Z,13.00
2022-10-03T05:16:30.130Z,13.00
2022-10-03T05:19:22.935Z,13.20
2022-10-03T05:21:57.752Z,13.10
2022-10-03T05:24:36.126Z,13.30
2022-10-03T05:27:23.327Z,13.20
2022-10-03T05:30:03.460Z,13.50
2022-10-03T05:32:40.544Z,13.50
2022-10-03T05:35:26.310Z,13.70
2022-10-03T05:38:13.237Z,13.80
2022-10-03T05:40:44.344Z,13.90
2022-10-03T05:43:29.650Z,13.90
2022-10-03T05:46:04.990Z,13.80
2022-10-03T05:48:46.169Z,13.50
2022-10-03T05:51:46.356Z,13.50
2022-10-03T05:54:48.723Z,13.50
2022-10-03T05:57:46.354Z,13.50
2022-10-03T06:00:21.769Z,13.20
2022-10-03T06:03:35.047Z,13.30
2022-10-03T06:06:20.804Z,13.40
2022-10-03T06:09:15.097Z,13.40
2022-10-03T06:12:02.453Z,13.40
2022-10-03T06:14:49.592Z,13.20
2022-10-03T06:17:50.540Z,13.20
2022-10-03T06:20:47.570Z,13.10
2022-10-03T06:23:47.947Z,13.30
2022-10-03T06:26:46.341Z,13.20
2022-10-03T06:29:41.940Z,13.10
2022-10-03T06:32:46.076Z,13.20
2022-10-03T06:35:52.927Z,13.20
2022-10-03T06:38:52.562Z,13.30
2022-10-03T06:42:06.472Z,13.40
2022-10-03T06:45:02.615Z,13.40
2022-10-03T06:47:43.185Z,13.40
2022-10-03T06:50:27.236Z,13.70
2022-10-03T06:53:24.570Z,13.80
2022-10-03T06:56:12.813Z,13.80
2022-10-03T06:59:11.790Z,13.90
2022-10-03T07:02:20.885Z,13.90
2022-10-03T07:05:10.974Z,13.90
2022-10-03T07:08:28.080Z,13.80
2022-10-03T07:11:33.246Z,13.70
2022-10-03T07:14:42.617Z,14.10
2022-10-03T07:17:33.620Z,14.20
2022-10-03T07:20:23.321Z,14.30
2022-10-03T07:23:17.182Z,14.30
2022-10-03T07:26:41.371Z,14.10
2022-10-03T07:30:03.369Z,14.40
2022-10-03T07:33:34.347Z,14.50
2022-10-03T07:36:51.154Z,14.30
2022-10-03T07:39:59.911Z,14.50
2022-10-03T07:42:58.906Z,14.60
2022-10-03T07:45:35.497Z,14.70
2022-10-03T07:48:42.595Z,14.80
2022-10-03T07:51:23.896Z,14.80
2022-10-03T07:54:30.814Z,14.80
2022-10-03T07:57:25.287Z,14.50
2022-10-03T08:00:25.484Z,14.60
2022-10-03T08:03:30.094Z,14.50
2022-10-03T08:06:26.146Z,14.60
2022-10-03T08:09:19.168Z,14.60
2022-10-03T08:12:04.546Z,14.80
2022-10-03T08:14:44.079Z,14.90
2022-10-03T08:17:56.381Z,15.00
2022-10-03T08:20:41.062Z,15.00
2022-10-03T08:23:58.456Z,15.00
2022-10-03T08:27:01.536Z,15.00
2022-10-03T08:29:59.995Z,15.00
2022-10-03T08:32:54.248Z,14.90
2022-10-03T08:35:42.478Z,15.20
2022-10-03T08:38:47.930Z,15.10
2022-10-03T08:42:13.193Z,15.20
2022-10-03T08:45:41.088Z,15.20
2022-10-03T08:48:46.621Z,15.30
2022-10-03T08:51:50.250Z,15.50
2022-10-03T08:54:55.236Z,15.50
2022-10-03T08:58:07.700Z,15.40
2022-10-03T09:01:00.277Z,15.30
2022-10-03T09:04:16.129Z,15.60
2022-10-03T09:07:17.620Z,15.70
2022-10-03T09:10:15.705Z,15.70
2022-10-03T09:13:10.905Z,15.80
2022-10-03T09:16:20.686Z,15.70
2022-10-03T09:19:10.847Z,15.90
2022-10-03T09:22:21.708Z,16.20
2022-10-03T09:28:54.906Z,16.00
2022-10-03T09:32:24.718Z,16.00
2022-10-03T09:35:20.793Z,16.00
2022-10-03T09:38:30.271Z,16.10
2022-10-03T09:41:34.984Z,16.20
2022-10-03T09:44:22.846Z,16.10
2022-10-03T09:47:29.393Z,16.30
2022-10-03T09:50:37.564Z,16.30
2022-10-03T09:53:40.443Z,16.40
2022-10-03T09:56:41.049Z,16.50
2022-10-03T09:59:34.505Z,16.50
2022-10-03T10:02:27.103Z,16.80
2022-10-03T10:05:11.732Z,17.00
2022-10-03T10:08:17.032Z,17.30
2022-10-03T10:11:07.051Z,17.40
2022-10-03T10:14:14.132Z,17.30
2022-10-03T10:17:20.107Z,17.20
2022-10-03T10:19:59.250Z,17.20
2022-10-03T10:22:58.597Z,17.00
2022-10-03T10:26:05.158Z,16.90
2022-10-03T10:28:52.184Z,17.10
2022-10-03T10:31:48.042Z,17.10
2022-10-03T10:34:43.433Z,17.30
2022-10-03T10:38:05.658Z,17.80
2022-10-03T10:41:17.274Z,17.90
2022-10-03T10:44:32.659Z,17.90
2022-10-03T10:47:24.192Z,18.00
2022-10-03T10:50:28.420Z,18.00
2022-10-03T10:53:30.239Z,18.00
2022-10-03T10:56:51.480Z,17.80
2022-10-03T11:00:15.129Z,18.00
2022-10-03T11:03:16.148Z,18.30
2022-10-03T11:06:21.513Z,18.50
2022-10-03T11:09:10.967Z,18.20
2022-10-03T11:12:16.048Z,18.00
2022-10-03T11:15:29.782Z,18.10
2022-10-03T11:19:08.780Z,18.10
2022-10-03T11:22:18.170Z,18.30
2022-10-03T11:25:22.263Z,18.40
2022-10-03T11:28:27.640Z,18.40
2022-10-03T11:31:40.835Z,18.60
2022-10-03T11:34:57.958Z,18.70
2022-10-03T11:37:45.878Z,18.20
2022-10-03T11:40:36.926Z,18.00
2022-10-03T11:43:45.418Z,18.30
2022-10-03T11:46:39.158Z,18.30
2022-10-03T11:49:21.163Z,18.20
2022-10-03T11:51:58.395Z,18.40
2022-10-03T11:54:32.212Z,18.40
2022-10-03T11:57:09.213Z,18.60
2022-10-03T11:59:51.187Z,19.10
2022-10-03T12:02:54.092Z,19.30
2022-10-03T12:08:41.676Z,19.50
2022-10-03T12:11:19.839Z,19.40
2022-10-03T12:14:11.265Z,19.50
2022-10-03T12:17:03.951Z,19.60
2022-10-03T12:19:37.686Z,19.70
2022-10-03T12:22:22.289Z,19.60
2022-10-03T12:24:51.836Z,19.70
2022-10-03T12:27:38.136Z,19.90
2022-10-03T12:30:24.141Z,19.70
2022-10-03T12:33:07.989Z,20.00
2022-10-03T12:35:47.571Z,20.10
2022-10-03T12:38:42.477Z,20.10
2022-10-03T12:41:41.629Z,19.80
2022-10-03T12:44:29.808Z,19.80
2022-10-03T12:47:12.002Z,20.10
2022-10-03T12:49:53.748Z,20.10
2022-10-03T12:52:29.493Z,20.20
2022-10-03T12:55:18.472Z,19.70
2022-10-03T12:57:56.290Z,19.70
2022-10-03T13:00:33.314Z,19.70
2022-10-03T13:03:19.743Z,20.10
2022-10-03T13:06:16.229Z,20.10
2022-10-03T13:08:54.876Z,20.10
2022-10-03T13:11:32.487Z,20.30
2022-10-03T13:14:27.393Z,20.30
2022-10-03T13:17:08.524Z,20.50
2022-10-03T13:19:53.022Z,20.60
2022-10-03T13:22:37.283Z,21.00
2022-10-03T13:25:16.455Z,21.40
2022-10-03T13:27:48.694Z,21.10
2022-10-03T13:30:22.548Z,21.10
2022-10-03T13:32:57.772Z,21.10
2022-10-03T13:35:53.337Z,20.60
2022-10-03T13:38:48.080Z,20.90
2022-10-03T13:41:32.232Z,21.10
2022-10-03T13:44:04.953Z,20.70
2022-10-03T13:46:44.950Z,20.20
2022-10-03T13:49:19.839Z,20.00
2022-10-03T13:51:57.531Z,19.80
2022-10-03T13:55:03.071Z,19.50
2022-10-03T13:57:35.900Z,19.10
2022-10-03T14:00:09.980Z,19.10
2022-10-03T14:03:07.483Z,19.10
2022-10-03T14:05:57.323Z,19.10
2022-10-03T14:08:46.235Z,19.40
2022-10-03T14:11:27.374Z,19.50
2022-10-03T14:14:14.636Z,19.50
2022-10-03T14:16:57.545Z,19.50
2022-10-03T14:19:37.105Z,19.50
2022-10-03T14:22:26.503Z,19.50
2022-10-03T14:25:07.924Z,19.80
2022-10-03T14:27:54.688Z,20.00
2022-10-03T14:30:25.065Z,20.10
2022-10-03T14:33:25.732Z,20.10
2022-10-03T14:36:03.551Z,20.20
2022-10-03T14:39:00.405Z,20.50
2022-10-03T14:41:47.322Z,20.50
2022-10-03T14:44:20.182Z,20.20
2022-10-03T14:46:54.219Z,20.10
2022-10-03T14:49:56.363Z,20.00
2022-10-03T14:52:29.405Z,20.20
2022-10-03T14:55:12.553Z,20.30
2022-10-03T14:58:06.024Z,20.60
2022-10-03T15:00:42.861Z,20.70
2022-10-03T15:03:38.784Z,20.70
2022-10-03T15:06:35.809Z,20.60
2022-10-03T15:09:10.630Z,20.70
2022-10-03T15:11:52.287Z,21.00
2022-10-03T15:14:29.429Z,21.30
2022-10-03T15:17:00.547Z,21.50
2022-10-03T15:19:34.941Z,21.80
2022-10-03T15:22:21.172Z,21.70
2022-10-03T15:24:50.234Z,21.40
2022-10-03T15:27:22.526Z,21.60
2022-10-03T15:29:55.148Z,21.50
2022-10-03T15:32:27.585Z,21.60
2022-10-03T15:35:02.284Z,21.60
2022-10-03T15:37:37.294Z,21.70
2022-10-03T15:40:11.415Z,21.60
2022-10-03T15:42:51.151Z,21.40
2022-10-03T15:45:29.387Z,21.30
2022-10-03T15:48:04.042Z,21.10
2022-10-03T15:50:37.772Z,21.00
2022-10-03T15:53:34.633Z,21.00
2022-10-03T15:56:07.460Z,21.00
2022-10-03T15:58:39.710Z,20.60
2022-10-03T16:01:13.304Z,20.60
2022-10-03T16:03:48.286Z,20.50
2022-10-03T16:06:21.982Z,20.30
2022-10-03T16:09:00.404Z,20.40
2022-10-03T16:11:39.309Z,20.40
2022-10-03T16:14:30.427Z,20.40
2022-10-03T16:17:01.419Z,20.20
2022-10-03T16:19:42.220Z,20.00
2022-10-03T16:22:26.753Z,20.20
2022-10-03T16:25:06.115Z,19.90
2022-10-03T16:27:43.618Z,19.90
2022-10-03T16:30:24.936Z,19.90
2022-10-03T16:33:02.975Z,20.00
2022-10-03T16:35:35.787Z,19.90
2022-10-03T16:38:08.416Z,19.70
2022-10-03T16:40:42.389Z,19.40
2022-10-03T16:43:21.736Z,19.30
2022-10-03T16:45:51.286Z,19.20
2022-10-03T16:48:43.853Z,19.30
2022-10-03T16:51:20.038Z,19.40
2022-10-03T16:53:50.498Z,19.60
2022-10-03T16:56:29.307Z,19.60
2022-10-03T16:59:06.529Z,19.70
2022-10-03T17:01:40.918Z,19.70
2022-10-03T17:04:22.904Z,19.50
2022-10-03T17:06:53.001Z,19.50
2022-10-03T17:09:38.385Z,19.40
2022-10-03T17:12:13.823Z,19.50
2022-10-03T17:14:44.910Z,19.50
2022-10-03T17:17:31.786Z,19.60
2022-10-03T17:20:04.635Z,19.60
2022-10-03T17:22:38.190Z,19.60
2022-10-03T17:25:09.868Z,19.40
2022-10-03T17:27:40.747Z,19.50
2022-10-03T17:30:31.770Z,19.40
2022-10-03T17:33:07.688Z,19.40
2022-10-03T17:35:55.520Z,19.40
2022-10-03T17:38:50.235Z,19.40
2022-10-03T17:41:24.272Z,19.50
2022-10-03T17:44:17.659Z,19.40
2022-10-03T17:47:02.026Z,19.20
2022-10-03T17:49:46.025Z,19.10
2022-10-03T17:52:20.703Z,19.20
2022-10-03T17:54:51.584Z,19.30
2022-10-03T17:57:24.808Z,19.20
2022-10-03T17:59:58.553Z,19.20
2022-10-03T18:02:44.708Z,19.10
2022-10-03T18:05:18.747Z,19.10
2022-10-03T18:07:50.036Z,19.00
2022-10-03T18:10:25.252Z,18.90
2022-10-03T18:12:55.697Z,19.00
2022-10-03T18:16:00.616Z,19.00
2022-10-03T18:18:59.490Z,19.10
2022-10-03T18:21:40.665Z,19.10
2022-10-03T18:24:47.257Z,19.00
2022-10-03T18:27:52.507Z,19.10
2022-10-03T18:30:25.825Z,19.10
2022-10-03T18:32:59.243Z,18.90
2022-10-03T18:35:30.758Z,18.90
2022-10-03T18:38:15.914Z,18.70
2022-10-03T18:40:50.007Z,18.70
2022-10-03T18:43:33.493Z,18.80
2022-10-03T18:46:10.465Z,18.70
2022-10-03T18:49:09.092Z,18.70
2022-10-03T18:51:40.896Z,18.70
2022-10-03T18:54:24.793Z,18.60
2022-10-03T18:57:05.442Z,18.60
2022-10-03T18:59:39.758Z,18.60
2022-10-03T19:02:20.221Z,18.40
2022-10-03T19:04:53.786Z,18.60
2022-10-03T19:07:26.095Z,18.50
2022-10-03T19:10:22.749Z,18.60
2022-10-03T19:12:56.444Z,18.60
2022-10-03T19:15:38.275Z,18.40
2022-10-03T19:18:21.286Z,18.40
2022-10-03T19:20:52.120Z,18.40
2022-10-03T19:23:26.905Z,18.40
2022-10-03T19:26:02.842Z,18.40
2022-10-03T19:28:37.235Z,18.10
2022-10-03T19:31:08.847Z,18.20
2022-10-03T19:33:45.221Z,18.10
2022-10-03T19:36:18.038Z,17.80
2022-10-03T19:38:50.158Z,17.60
2022-10-03T19:41:28.700Z,17.30
2022-10-03T19:43:58.413Z,17.30
2022-10-03T19:46:47.761Z,17.10
2022-10-03T19:49:28.137Z,17.10
2022-10-03T19:52:18.646Z,16.60
2022-10-03T19:54:51.626Z,16.60
2022-10-03T19:57:26.640Z,16.50
2022-10-03T19:59:57.658Z,16.50
2022-10-03T20:02:27.783Z,16.20
2022-10-03T20:04:57.579Z,16.30
2022-10-03T20:07:46.138Z,16.50
2022-10-03T20:10:30.805Z,16.40
2022-10-03T20:13:04.761Z,16.40
2022-10-03T20:15:43.833Z,16.60
2022-10-03T20:18:21.631Z,16.70
2022-10-03T20:20:52.253Z,16.30
2022-10-03T20:23:26.131Z,16.30
2022-10-03T20:25:58.123Z,16.20
2022-10-03T20:28:40.494Z,16.10
2022-10-03T20:31:11.353Z,15.90
2022-10-03T20:33:39.446Z,16.30
2022-10-03T20:36:15.596Z,16.30
2022-10-03T20:39:11.232Z,16.50
2022-10-03T20:41:55.297Z,16.60
2022-10-03T20:44:55.015Z,16.50
2022-10-03T20:47:48.373Z,16.30
2022-10-03T20:50:25.598Z,16.20
2022-10-03T20:52:57.415Z,16.50
2022-10-03T20:55:28.218Z,16.80
2022-10-03T20:58:05.406Z,17.10
2022-10-03T21:00:45.178Z,17.20
2022-10-03T21:03:24.305Z,17.20
2022-10-03T21:05:55.216Z,17.20
2022-10-03T21:08:29.011Z,17.00
2022-10-03T21:10:59.515Z,17.20
2022-10-03T21:13:33.253Z,17.20
2022-10-03T21:16:16.756Z,17.40
2022-10-03T21:18:47.138Z,17.30
2022-10-03T21:21:23.636Z,17.20
2022-10-03T21:23:56.951Z,17.10
2022-10-03T21:26:30.856Z,17.00
2022-10-03T21:29:25.788Z,17.00
2022-10-03T21:32:18.700Z,17.10
2022-10-03T21:35:01.076Z,17.00
2022-10-03T21:37:36.949Z,17.10
2022-10-03T21:40:20.267Z,17.10
2022-10-03T21:42:59.055Z,17.20
2022-10-03T21:45:33.994Z,17.30
2022-10-03T21:48:18.093Z,17.10
2022-10-03T21:50:53.919Z,17.10
2022-10-03T21:53:33.726Z,17.10
2022-10-03T21:56:22.185Z,17.00
2022-10-03T21:59:11.180Z,17.00
2022-10-03T22:01:46.496Z,16.80
2022-10-03T22:04:23.004Z,16.80
2022-10-03T22:07:03.250Z,16.80
2022-10-03T22:09:31.885Z,16.80
2022-10-03T22:12:03.564Z,16.50
2022-10-03T22:14:43.681Z,16.50
2022-10-03T22:17:34.460Z,16.30
2022-10-03T22:20:20.171Z,16.20
2022-10-03T22:22:58.588Z,16.20
2022-10-03T22:25:40.023Z,16.40
2022-10-03T22:28:24.310Z,16.40
2022-10-03T22:31:01.789Z,16.50
2022-10-03T22:33:39.680Z,16.00
2022-10-03T22:36:13.250Z,16.00
2022-10-03T22:38:44.283Z,15.80
2022-10-03T22:41:17.179Z,15.90
2022-10-03T22:43:47.386Z,16.10
2022-10-03T22:46:21.366Z,16.10
2022-10-03T22:48:56.815Z,16.10
2022-10-03T22:51:26.254Z,16.40
2022-10-03T22:54:02.503Z,16.30
2022-10-03T22:56:48.359Z,16.50
2022-10-03T22:59:22.100Z,16.50
2022-10-03T23:01:55.711Z,16.60
2022-10-03T23:04:33.730Z,16.60
2022-10-03T23:07:46.937Z,16.50
2022-10-03T23:10:46.492Z,15.90
2022-10-03T23:13:20.423Z,15.60
2022-10-03T23:15:52.102Z,15.40
2022-10-03T23:18:48.622Z,15.50
2022-10-03T23:21:19.336Z,15.80
2022-10-03T23:23:56.876Z,15.70
2022-10-03T23:27:01.929Z,15.90
2022-10-03T23:29:35.340Z,16.10
2022-10-03T23:32:04.895Z,16.20
2022-10-03T23:35:08.566Z,16.20
2022-10-03T23:37:50.220Z,16.20
2022-10-03T23:40:45.788Z,16.30
2022-10-03T23:43:39.678Z,16.40
2022-10-03T23:46:14.166Z,16.40
2022-10-03T23:48:47.840Z,16.50
2022-10-03T23:51:19.939Z,16.50
2022-10-03T23:53:51.311Z,16.50
2022-10-03T23:56:34.820Z,16.60
2022-10-03T23:59:21.883Z,16.30
